Aérodrome :
LOGIN :

S'inscrire | Disclaimer

   EN    FR    IT 

 










Légende :    VFR   VFR Marginal   IFR   IFR Intensif   IFR Très Intensif
Visi : 
Plafond : 
>= 8 km
>= 3000ft
5 à 8 km
1000 à 3000 ft
1500m à 5 km
500 à 1000 ft
800 à 1500m
200 à 500 ft
< 800m
< 200 ft
Symboles :   Orages  Brouillard  Fortes neiges  Fortes précipitations  Vent > 20 kt
SIGMETs :   Divers  Orages  Givrage  Turbulence  Onde Orograph.  Cendres Volcan.






- Altitude de l'aérodrome : 376 ft


LHKE - Kecskemét

DERNIER METAR :
  • 101015Z 33010KT 6000 -RA BKN040 OVC063 06/05 Q1015 NOSIG RMK WHT

METARs EXPIRÉS :
  • 100945Z 35006KT 300V020 6000 -RA BKN050 OVC070 06/05 Q1015 NOSIG RMK WHT
  • 100915Z 34008KT 6000 -RA BKN050 OVC070 06/05 Q1015 NOSIG RMK WHT
  • 100845Z 33008KT 7000 -RA BKN050 OVC070 06/05 Q1014 NOSIG RMK WHT
  • 100815Z 31008KT 7000 -RA SCT047 OVC060 05/05 Q1014 NOSIG RMK WHT
  • 100745Z 31006KT 7000 -RA SCT045 OVC053 05/04 Q1014 TEMPO 5000 RA BR RMK WHT

TAF TAF LHKE
Valide du 10 à 09h jusqu'au 10 à 18h UTC


100815Z 1009/1018 32008KT 6000 -RA FEW005 BKN045 OVC060
BECMG 1010/1013 33010KT 8000 NSW BKN045 BKN083
TEMPO 1013/1016 CAVOK
TEMPO 1016/1018 BKN030



MET'MAP, la Météo Aéronautique d'un coup d'oeil ! - Copyright ORBIFLY Décembre 2007 - Disclaimer

ORBIFLY MET'MAP TEAM :

Programmation & Développement : Alexandra Zaïnal
Sur une idée originale de : Baudouin d'Aumeries
Assistance à la programmation : Marc-Olivier Méhu
Soutien technique & logistique : Manuel Goepfert

Contact : metmap@orbifly.com




SOURCES & CREDITS :

   NOAA